Time;durP1;ratioP1;P1;durP2;ratioP2;P2;SDS_P1;SDS_P2;PMS_P1;PMS_P2;Temp;Humidity;BMP_temperature;BMP_pressure;BME280_temperature;BME280_humidity;BME280_pressure;Samples;Min_cycle;Max_cycle;Signal;HPM_P1;HPM_P2
2021/10/10 00:02:03;;;;;;;;;;;7.50;99.90;;;;;;5113675;27;20293;-75
2021/10/10 00:04:29;;;;;;;;;;;7.40;99.90;;;;;;5104182;28;20401;-76
2021/10/10 00:06:56;;;;;;;;;;;7.40;99.90;;;;;;5108714;27;20896;-74
2021/10/10 00:09:23;;;;;;;;;;;7.40;99.90;;;;;;5105819;28;20002;-74
2021/10/10 00:11:51;;;;;;;;;;;7.40;99.90;;;;;;5113640;27;19927;-75
2021/10/10 00:14:17;;;;;;;;;;;7.30;99.90;;;;;;5103675;27;19919;-75
2021/10/10 00:16:44;;;;;;;;;;;7.30;99.90;;;;;;5105572;27;20376;-74
2021/10/10 00:19:11;;;;;;;;;;;7.30;99.90;;;;;;5100782;28;20298;-74
2021/10/10 00:21:38;;;;;;;;;;;7.30;99.90;;;;;;5104497;27;19973;-75
2021/10/10 00:24:04;;;;;;;;;;;7.30;99.90;;;;;;5108854;27;19926;-74
2021/10/10 00:26:31;;;;;;;;;;;7.30;99.90;;;;;;5108436;27;20012;-74
2021/10/10 00:28:59;;;;;;;;;;;7.20;99.90;;;;;;5121919;27;20334;-74
2021/10/10 00:31:26;;;;;;;;;;;7.20;99.90;;;;;;5098266;28;19923;-74
2021/10/10 00:33:52;;;;;;;;;;;7.20;99.90;;;;;;5115747;27;19926;-74
2021/10/10 00:36:19;;;;;;;;;;;7.20;99.90;;;;;;5111062;28;20016;-74
2021/10/10 00:38:46;;;;;;;;;;;7.10;99.90;;;;;;5109653;28;19958;-75
2021/10/10 00:41:12;;;;;;;;;;;7.10;99.90;;;;;;5111595;28;19919;-75
2021/10/10 00:43:39;;;;;;;;;;;7.10;99.90;;;;;;5105641;27;19920;-75
2021/10/10 00:46:07;;;;;;;;;;;7.10;99.90;;;;;;5093951;28;19919;-75
2021/10/10 00:48:34;;;;;;;;;;;7.10;99.90;;;;;;5108233;27;19942;-75
2021/10/10 00:51:00;;;;;;;;;;;7.00;99.90;;;;;;5100358;28;20436;-75
2021/10/10 00:53:27;;;;;;;;;;;7.00;99.90;;;;;;5119724;27;19919;-75
2021/10/10 00:55:54;;;;;;;;;;;6.90;99.90;;;;;;5108935;28;19919;-74
2021/10/10 00:58:22;;;;;;;;;;;6.90;99.90;;;;;;5103361;28;19920;-74
2021/10/10 01:00:49;;;;;;;;;;;6.80;99.90;;;;;;5103294;27;19931;-74
2021/10/10 01:03:17;;;;;;;;;;;6.80;99.90;;;;;;5111621;27;19926;-75
2021/10/10 01:05:44;;;;;;;;;;;6.80;99.90;;;;;;5102902;27;19983;-74
2021/10/10 01:08:13;;;;;;;;;;;6.80;99.90;;;;;;5122089;27;19919;-74
2021/10/10 01:10:39;;;;;;;;;;;6.70;99.90;;;;;;5111447;28;19952;-74
2021/10/10 01:13:06;;;;;;;;;;;6.60;99.90;;;;;;5122821;27;19923;-75
2021/10/10 01:15:32;;;;;;;;;;;6.60;99.90;;;;;;5102328;28;19927;-75
2021/10/10 01:17:59;;;;;;;;;;;6.60;99.90;;;;;;5100866;28;20017;-74
2021/10/10 01:20:28;;;;;;;;;;;6.60;99.90;;;;;;5108298;28;19956;-74
2021/10/10 01:22:58;;;;;;;;;;;6.40;99.90;;;;;;5107671;28;20265;-74
2021/10/10 01:25:25;;;;;;;;;;;6.40;99.90;;;;;;5105729;28;20010;-74
2021/10/10 01:27:51;;;;;;;;;;;6.30;99.90;;;;;;5104224;28;19968;-74
2021/10/10 01:30:18;;;;;;;;;;;6.30;99.90;;;;;;5106880;28;20478;-74
2021/10/10 01:32:53;;;;;;;;;;;6.30;99.90;;;;;;5116142;27;20447;-74
2021/10/10 01:35:20;;;;;;;;;;;6.30;99.90;;;;;;5113077;28;20039;-74
2021/10/10 01:37:46;;;;;;;;;;;6.40;99.90;;;;;;5105004;28;20324;-75
2021/10/10 01:40:15;;;;;;;;;;;6.30;99.90;;;;;;5106244;28;20375;-74
2021/10/10 01:42:42;;;;;;;;;;;6.40;99.90;;;;;;5112131;28;20434;-74
2021/10/10 01:45:14;;;;;;;;;;;6.40;99.90;;;;;;5104918;28;19959;-75
2021/10/10 01:47:40;;;;;;;;;;;6.40;99.90;;;;;;5114213;28;19972;-74
2021/10/10 01:50:08;;;;;;;;;;;6.50;99.90;;;;;;5116664;28;20069;-74
2021/10/10 01:52:35;;;;;;;;;;;6.50;99.90;;;;;;5105565;28;19973;-74
2021/10/10 01:55:01;;;;;;;;;;;6.40;99.90;;;;;;5099537;28;19994;-74
2021/10/10 01:57:29;;;;;;;;;;;6.40;99.90;;;;;;5111744;28;19995;-74
2021/10/10 01:59:56;;;;;;;;;;;6.50;99.90;;;;;;5118254;28;20473;-74
2021/10/10 02:02:23;;;;;;;;;;;6.50;99.90;;;;;;5106333;27;20478;-74
2021/10/10 02:04:49;;;;;;;;;;;6.50;99.90;;;;;;5113859;27;19951;-74
2021/10/10 02:07:16;;;;;;;;;;;6.50;99.90;;;;;;5116082;28;19952;-75
2021/10/10 02:09:44;;;;;;;;;;;6.50;99.90;;;;;;5111949;27;20426;-74
2021/10/10 02:12:10;;;;;;;;;;;6.50;99.90;;;;;;5123532;27;20378;-74
2021/10/10 02:14:38;;;;;;;;;;;6.40;99.90;;;;;;5117526;27;19923;-74
2021/10/10 02:17:05;;;;;;;;;;;6.40;99.90;;;;;;5097296;28;20289;-74
2021/10/10 02:19:32;;;;;;;;;;;6.40;99.90;;;;;;5102697;27;20369;-74
2021/10/10 02:21:59;;;;;;;;;;;6.50;99.90;;;;;;5114627;27;19949;-74
2021/10/10 02:24:26;;;;;;;;;;;6.50;99.90;;;;;;5105364;27;20032;-74
2021/10/10 02:26:52;;;;;;;;;;;6.40;99.90;;;;;;5116315;28;20027;-74
2021/10/10 02:29:19;;;;;;;;;;;6.40;99.90;;;;;;5114204;27;19942;-74
2021/10/10 02:31:47;;;;;;;;;;;6.40;99.90;;;;;;5115276;27;19942;-76
2021/10/10 02:34:15;;;;;;;;;;;6.40;99.90;;;;;;5106743;27;19932;-74
2021/10/10 02:36:43;;;;;;;;;;;6.40;99.90;;;;;;5100351;27;19955;-75
2021/10/10 02:39:10;;;;;;;;;;;6.40;99.90;;;;;;5103479;27;19931;-75
2021/10/10 02:41:36;;;;;;;;;;;6.40;99.90;;;;;;5114548;27;20062;-74
2021/10/10 02:44:03;;;;;;;;;;;6.40;99.90;;;;;;5114972;27;20063;-75
2021/10/10 02:46:30;;;;;;;;;;;6.40;99.90;;;;;;5109801;27;20413;-76
2021/10/10 02:48:58;;;;;;;;;;;6.40;99.90;;;;;;5107391;27;19931;-76
2021/10/10 02:51:25;;;;;;;;;;;6.40;99.90;;;;;;5107801;27;19924;-76
2021/10/10 02:53:52;;;;;;;;;;;6.40;99.90;;;;;;5127179;27;19923;-76
2021/10/10 02:56:18;;;;;;;;;;;6.30;99.90;;;;;;5112656;28;19931;-74
2021/10/10 02:58:45;;;;;;;;;;;6.30;99.90;;;;;;5114753;28;20014;-75
2021/10/10 03:01:12;;;;;;;;;;;6.30;99.90;;;;;;5107357;27;19924;-74
2021/10/10 03:03:38;;;;;;;;;;;6.20;99.90;;;;;;5114570;27;20065;-74
2021/10/10 03:06:07;;;;;;;;;;;6.20;99.90;;;;;;5108644;28;19958;-74
2021/10/10 03:08:34;;;;;;;;;;;6.20;99.90;;;;;;5114812;27;20326;-75
2021/10/10 03:11:01;;;;;;;;;;;6.20;99.90;;;;;;5109225;27;20062;-74
2021/10/10 03:13:27;;;;;;;;;;;6.20;99.90;;;;;;5113187;27;20423;-73
2021/10/10 03:15:55;;;;;;;;;;;6.30;99.90;;;;;;5110364;27;20471;-74
2021/10/10 03:18:21;;;;;;;;;;;6.20;99.90;;;;;;5112751;27;19961;-74
2021/10/10 03:20:48;;;;;;;;;;;6.20;99.90;;;;;;5103475;28;20445;-74
2021/10/10 03:23:16;;;;;;;;;;;6.20;99.90;;;;;;5114038;28;19958;-73
2021/10/10 03:25:43;;;;;;;;;;;6.20;99.90;;;;;;5111733;27;20415;-73
2021/10/10 03:28:09;;;;;;;;;;;6.30;99.90;;;;;;5118485;27;20004;-74
2021/10/10 03:30:36;;;;;;;;;;;6.30;99.90;;;;;;5114724;27;19960;-73
2021/10/10 03:33:03;;;;;;;;;;;6.30;99.90;;;;;;5110921;27;19961;-73
2021/10/10 03:35:30;;;;;;;;;;;6.50;99.90;;;;;;5104089;27;19972;-73
2021/10/10 03:37:56;;;;;;;;;;;6.50;99.90;;;;;;5107497;27;20067;-73
2021/10/10 03:40:24;;;;;;;;;;;6.50;99.90;;;;;;5112456;27;19962;-73
2021/10/10 03:42:51;;;;;;;;;;;6.60;99.90;;;;;;5107985;27;19960;-73
2021/10/10 03:45:17;;;;;;;;;;;6.50;99.90;;;;;;5106801;27;20502;-73
2021/10/10 03:47:44;;;;;;;;;;;6.50;99.90;;;;;;5108218;27;19977;-73
2021/10/10 03:50:11;;;;;;;;;;;6.60;99.90;;;;;;5111532;27;19987;-73
2021/10/10 03:52:38;;;;;;;;;;;6.50;99.90;;;;;;5106597;27;20070;-73
2021/10/10 03:55:19;;;;;;;;;;;6.60;99.90;;;;;;5105987;28;19957;-73
2021/10/10 03:57:48;;;;;;;;;;;6.60;99.90;;;;;;5111168;27;19957;-73
2021/10/10 04:00:14;;;;;;;;;;;6.60;99.90;;;;;;5112289;27;20019;-73
2021/10/10 04:02:41;;;;;;;;;;;6.60;99.90;;;;;;5107066;27;19948;-73
2021/10/10 04:05:18;;;;;;;;;;;6.60;99.90;;;;;;5107742;27;20323;-73
2021/10/10 04:07:44;;;;;;;;;;;6.60;99.90;;;;;;5099244;28;19952;-72
2021/10/10 04:10:11;;;;;;;;;;;6.60;99.90;;;;;;5107389;27;19949;-73
2021/10/10 04:12:37;;;;;;;;;;;6.60;99.90;;;;;;5107983;27;20038;-73
2021/10/10 04:15:06;;;;;;;;;;;6.60;99.90;;;;;;5110073;27;19960;-73
2021/10/10 04:17:33;;;;;;;;;;;6.50;99.90;;;;;;5105519;28;19938;-73
2021/10/10 04:20:00;;;;;;;;;;;6.50;99.90;;;;;;5108857;27;19959;-73
2021/10/10 04:22:26;;;;;;;;;;;6.40;99.90;;;;;;5099220;27;19944;-74
2021/10/10 04:24:53;;;;;;;;;;;6.40;99.90;;;;;;5105592;27;19984;-73
2021/10/10 04:27:20;;;;;;;;;;;6.30;99.90;;;;;;5111021;27;19948;-73
2021/10/10 04:29:46;;;;;;;;;;;6.40;99.90;;;;;;5111802;28;20078;-74
2021/10/10 04:32:14;;;;;;;;;;;6.40;99.90;;;;;;5110848;27;19944;-74
2021/10/10 04:34:41;;;;;;;;;;;6.30;99.90;;;;;;5092989;27;19940;-74
2021/10/10 04:37:08;;;;;;;;;;;6.40;99.90;;;;;;5111440;27;19985;-74
2021/10/10 04:39:34;;;;;;;;;;;6.30;99.90;;;;;;5109770;28;19989;-74
2021/10/10 04:42:01;;;;;;;;;;;6.30;99.90;;;;;;5113071;27;19919;-74
2021/10/10 04:44:28;;;;;;;;;;;6.30;99.90;;;;;;5100955;27;19954;-74
2021/10/10 04:46:54;;;;;;;;;;;6.30;99.90;;;;;;5109787;28;19956;-73
2021/10/10 04:49:22;;;;;;;;;;;6.30;99.90;;;;;;5112605;27;20365;-74
2021/10/10 04:51:49;;;;;;;;;;;6.30;99.90;;;;;;5112614;28;20293;-73
2021/10/10 04:54:15;;;;;;;;;;;6.30;99.90;;;;;;5104283;27;19926;-74
2021/10/10 04:56:42;;;;;;;;;;;6.30;99.90;;;;;;5113636;27;20006;-74
2021/10/10 04:59:09;;;;;;;;;;;6.30;99.90;;;;;;5109076;28;20039;-74
2021/10/10 05:01:35;;;;;;;;;;;6.20;99.90;;;;;;5106003;28;20014;-73
2021/10/10 05:04:02;;;;;;;;;;;6.20;99.90;;;;;;5106236;28;20022;-73
2021/10/10 05:06:30;;;;;;;;;;;6.20;99.90;;;;;;5100526;28;20002;-73
2021/10/10 05:08:56;;;;;;;;;;;6.10;99.90;;;;;;5103420;27;19920;-73
2021/10/10 05:11:23;;;;;;;;;;;6.10;99.90;;;;;;5120386;27;19926;-72
2021/10/10 05:13:50;;;;;;;;;;;6.00;99.90;;;;;;5114855;27;19923;-73
2021/10/10 05:16:16;;;;;;;;;;;6.00;99.90;;;;;;5107646;28;20014;-72
2021/10/10 05:18:43;;;;;;;;;;;6.00;99.90;;;;;;5103837;28;20010;-72
2021/10/10 05:21:10;;;;;;;;;;;6.00;99.90;;;;;;5110155;28;19924;-73
2021/10/10 05:23:38;;;;;;;;;;;6.00;99.90;;;;;;5109821;28;19926;-73
2021/10/10 05:26:05;;;;;;;;;;;5.90;99.90;;;;;;5103149;28;20381;-72
2021/10/10 05:28:32;;;;;;;;;;;5.90;99.90;;;;;;5107645;28;19927;-73
2021/10/10 05:30:58;;;;;;;;;;;6.00;99.90;;;;;;5119348;27;20004;-74
2021/10/10 05:33:25;;;;;;;;;;;5.90;99.90;;;;;;5111218;27;19926;-73
2021/10/10 05:35:51;;;;;;;;;;;6.00;99.90;;;;;;5097546;28;19926;-73
2021/10/10 05:38:18;;;;;;;;;;;6.00;99.90;;;;;;5108263;27;20002;-73
2021/10/10 05:40:46;;;;;;;;;;;6.00;99.90;;;;;;5111295;27;19920;-73
2021/10/10 05:43:13;;;;;;;;;;;6.00;99.90;;;;;;5111579;28;20010;-72
2021/10/10 05:45:40;;;;;;;;;;;6.00;99.90;;;;;;5108161;28;19930;-73
2021/10/10 05:48:06;;;;;;;;;;;6.10;99.90;;;;;;5108756;28;20050;-73
2021/10/10 05:50:33;;;;;;;;;;;6.10;99.90;;;;;;5104403;28;19920;-73
2021/10/10 05:53:06;;;;;;;;;;;6.10;99.90;;;;;;5111981;28;20012;-73
2021/10/10 05:55:33;;;;;;;;;;;6.10;99.90;;;;;;5111862;28;19937;-73
2021/10/10 05:58:03;;;;;;;;;;;6.10;99.90;;;;;;5104440;28;19937;-73
2021/10/10 06:00:30;;;;;;;;;;;6.10;99.90;;;;;;5101943;28;19932;-74
2021/10/10 06:02:57;;;;;;;;;;;6.00;99.90;;;;;;5085077;28;19927;-75
2021/10/10 06:05:24;;;;;;;;;;;6.00;99.90;;;;;;5101975;28;19919;-74
2021/10/10 06:07:51;;;;;;;;;;;6.10;99.90;;;;;;5100136;28;20019;-74
2021/10/10 06:10:17;;;;;;;;;;;6.10;99.90;;;;;;5095796;28;19926;-74
2021/10/10 06:12:44;;;;;;;;;;;6.40;99.90;;;;;;5091075;28;19958;-75
2021/10/10 06:15:12;;;;;;;;;;;6.20;99.90;;;;;;5101423;28;19926;-75
2021/10/10 06:17:39;;;;;;;;;;;6.30;99.90;;;;;;5101236;28;19965;-74
2021/10/10 06:20:06;;;;;;;;;;;6.30;99.90;;;;;;5094395;28;19920;-74
2021/10/10 06:22:33;;;;;;;;;;;6.30;99.90;;;;;;5099349;28;19919;-75
2021/10/10 06:25:01;;;;;;;;;;;6.40;99.90;;;;;;5096374;28;19941;-75
2021/10/10 06:27:27;;;;;;;;;;;6.30;99.90;;;;;;5093230;28;20453;-74
2021/10/10 06:29:54;;;;;;;;;;;6.40;99.90;;;;;;5092182;28;19955;-74
2021/10/10 06:32:22;;;;;;;;;;;6.50;99.90;;;;;;5100409;28;20384;-75
2021/10/10 06:34:49;;;;;;;;;;;6.50;99.90;;;;;;5100303;28;20353;-74
2021/10/10 06:37:15;;;;;;;;;;;6.60;99.90;;;;;;5096407;28;20320;-75
2021/10/10 06:39:42;;;;;;;;;;;6.60;99.90;;;;;;5107533;28;19920;-74
2021/10/10 06:42:09;;;;;;;;;;;6.70;99.90;;;;;;5093078;28;19920;-74
2021/10/10 06:44:36;;;;;;;;;;;6.60;99.90;;;;;;5096422;28;19985;-74
2021/10/10 06:47:03;;;;;;;;;;;6.60;99.90;;;;;;5094956;28;20361;-73
2021/10/10 06:49:31;;;;;;;;;;;6.70;99.90;;;;;;5108882;27;20034;-74
2021/10/10 06:51:58;;;;;;;;;;;6.70;99.90;;;;;;5095898;28;19951;-74
2021/10/10 06:54:24;;;;;;;;;;;6.80;99.90;;;;;;5102950;27;19964;-74
2021/10/10 06:56:51;;;;;;;;;;;6.80;99.90;;;;;;5104818;27;19958;-74
2021/10/10 06:59:18;;;;;;;;;;;6.90;99.90;;;;;;5099519;28;20038;-73
2021/10/10 07:01:44;;;;;;;;;;;7.00;99.90;;;;;;5103265;27;19954;-74
2021/10/10 07:04:11;;;;;;;;;;;7.20;99.90;;;;;;5108983;27;19988;-74
2021/10/10 07:06:39;;;;;;;;;;;7.10;99.90;;;;;;5105825;27;19920;-74
2021/10/10 07:09:06;;;;;;;;;;;7.20;99.90;;;;;;5105421;27;19926;-75
2021/10/10 07:11:32;;;;;;;;;;;7.20;99.90;;;;;;5096750;27;19974;-75
2021/10/10 07:13:59;;;;;;;;;;;7.40;99.90;;;;;;5099846;27;19923;-75
2021/10/10 07:16:27;;;;;;;;;;;7.60;99.90;;;;;;5107031;27;20073;-74
2021/10/10 07:18:55;;;;;;;;;;;7.50;99.90;;;;;;5101914;27;19954;-75
2021/10/10 07:21:27;;;;;;;;;;;7.50;99.90;;;;;;5111187;27;19979;-75
2021/10/10 07:24:50;;;;;;;;;;;7.60;99.90;;;;;;5101051;28;19974;-76
2021/10/10 07:26:43;;;;;;;;;;;7.70;99.90;;;;;;5101742;27;20000;-74
2021/10/10 07:29:10;;;;;;;;;;;7.60;99.90;;;;;;5101660;27;19957;-74
2021/10/10 07:31:36;;;;;;;;;;;7.70;99.90;;;;;;5126553;27;19954;-74
2021/10/10 07:34:03;;;;;;;;;;;7.90;99.90;;;;;;5113658;27;20041;-74
2021/10/10 07:36:30;;;;;;;;;;;8.00;99.90;;;;;;5103331;27;20020;-75
2021/10/10 07:38:58;;;;;;;;;;;8.10;99.90;;;;;;5094545;27;19951;-75
2021/10/10 07:41:24;;;;;;;;;;;8.20;99.90;;;;;;5105674;28;19980;-75
2021/10/10 07:43:51;;;;;;;;;;;8.20;99.90;;;;;;5103250;27;19951;-75
2021/10/10 07:46:20;;;;;;;;;;;8.20;99.90;;;;;;5111116;27;19986;-75
2021/10/10 07:48:47;;;;;;;;;;;8.30;99.90;;;;;;5112198;27;19966;-74
2021/10/10 07:51:14;;;;;;;;;;;8.30;99.90;;;;;;5101479;28;19950;-75
2021/10/10 07:53:40;;;;;;;;;;;8.30;99.90;;;;;;5091883;28;20641;-75
2021/10/10 07:56:08;;;;;;;;;;;8.20;99.90;;;;;;5104157;27;20371;-75
2021/10/10 07:58:35;;;;;;;;;;;8.20;99.90;;;;;;5101235;28;20374;-75
2021/10/10 08:01:02;;;;;;;;;;;8.30;99.90;;;;;;5100128;28;20478;-75
2021/10/10 08:03:28;;;;;;;;;;;8.40;99.90;;;;;;5107682;27;19956;-75
2021/10/10 08:05:55;;;;;;;;;;;8.60;99.90;;;;;;5099631;28;19960;-74
2021/10/10 08:08:22;;;;;;;;;;;8.80;99.90;;;;;;5099666;27;20068;-75
2021/10/10 08:10:48;;;;;;;;;;;8.90;99.90;;;;;;5094920;28;20076;-75
2021/10/10 08:13:17;;;;;;;;;;;9.00;99.90;;;;;;5106247;27;19972;-75
2021/10/10 08:15:43;;;;;;;;;;;9.10;99.90;;;;;;5099931;27;20047;-75
2021/10/10 08:18:10;;;;;;;;;;;9.10;99.90;;;;;;5107946;27;19950;-74
2021/10/10 08:20:38;;;;;;;;;;;9.30;99.90;;;;;;5100410;28;20018;-75
2021/10/10 08:23:05;;;;;;;;;;;9.30;99.90;;;;;;5104313;27;19968;-74
2021/10/10 08:25:32;;;;;;;;;;;9.20;99.90;;;;;;5114350;27;20033;-75
2021/10/10 08:27:59;;;;;;;;;;;9.10;99.90;;;;;;5099201;27;19971;-74
2021/10/10 08:30:27;;;;;;;;;;;9.30;99.90;;;;;;5094117;28;20389;-75
2021/10/10 08:32:54;;;;;;;;;;;9.40;99.90;;;;;;5102484;27;19919;-74
2021/10/10 08:35:21;;;;;;;;;;;9.50;99.90;;;;;;5097561;28;20050;-74
2021/10/10 08:37:48;;;;;;;;;;;9.50;99.90;;;;;;5099550;27;19938;-74
2021/10/10 08:40:15;;;;;;;;;;;9.60;99.90;;;;;;5097854;27;20045;-74
2021/10/10 08:42:44;;;;;;;;;;;9.80;99.90;;;;;;5099796;28;19959;-75
2021/10/10 08:45:14;;;;;;;;;;;9.90;99.90;;;;;;5101111;27;20020;-74
2021/10/10 08:47:43;;;;;;;;;;;10.00;99.90;;;;;;5099978;28;19969;-74
2021/10/10 08:50:14;;;;;;;;;;;10.10;99.90;;;;;;5098603;28;20025;-74
2021/10/10 08:52:40;;;;;;;;;;;10.20;99.90;;;;;;5098934;28;19991;-76
2021/10/10 08:55:07;;;;;;;;;;;10.30;99.90;;;;;;5089858;27;20019;-74
2021/10/10 08:57:34;;;;;;;;;;;10.50;99.90;;;;;;5095392;28;19953;-74
2021/10/10 09:00:05;;;;;;;;;;;10.50;99.90;;;;;;5099279;27;20309;-74
2021/10/10 09:02:33;;;;;;;;;;;10.70;99.90;;;;;;5096270;27;19934;-74
2021/10/10 09:05:04;;;;;;;;;;;10.50;99.90;;;;;;5107140;27;20014;-75
2021/10/10 09:07:31;;;;;;;;;;;10.40;99.90;;;;;;5104826;27;19924;-75
2021/10/10 09:10:15;;;;;;;;;;;10.30;99.90;;;;;;5095480;28;20346;-75
2021/10/10 09:12:41;;;;;;;;;;;10.60;99.90;;;;;;5090631;28;19935;-74
2021/10/10 09:15:09;;;;;;;;;;;10.60;99.90;;;;;;5102655;27;19943;-75
2021/10/10 09:17:36;;;;;;;;;;;10.60;99.90;;;;;;5107266;28;19996;-75
2021/10/10 09:20:05;;;;;;;;;;;10.80;99.90;;;;;;5103893;27;19954;-74
2021/10/10 09:22:32;;;;;;;;;;;11.10;99.90;;;;;;5094946;28;20397;-75
2021/10/10 09:25:11;;;;;;;;;;;11.40;99.90;;;;;;5098811;27;20308;-75
2021/10/10 09:27:37;;;;;;;;;;;11.70;99.90;;;;;;5110070;27;19940;-75
2021/10/10 09:30:05;;;;;;;;;;;11.90;99.90;;;;;;5098563;27;20037;-76
2021/10/10 09:32:32;;;;;;;;;;;12.00;99.90;;;;;;5100770;27;19968;-76
2021/10/10 09:34:59;;;;;;;;;;;12.10;99.90;;;;;;5093703;28;19940;-77
2021/10/10 09:37:38;;;;;;;;;;;12.10;99.90;;;;;;5099730;28;19966;-74
2021/10/10 09:40:09;;;;;;;;;;;12.10;99.90;;;;;;5102689;27;19956;-74
2021/10/10 09:42:37;;;;;;;;;;;12.20;99.90;;;;;;5094126;27;19920;-75
2021/10/10 09:45:14;;;;;;;;;;;12.20;99.90;;;;;;5099417;27;19955;-76
2021/10/10 09:47:49;;;;;;;;;;;12.30;99.90;;;;;;5100736;27;20036;-75
2021/10/10 09:50:16;;;;;;;;;;;12.20;99.90;;;;;;5101263;28;19945;-75
2021/10/10 09:52:44;;;;;;;;;;;12.00;99.90;;;;;;5092065;28;20385;-75
2021/10/10 09:55:11;;;;;;;;;;;11.80;99.90;;;;;;5092150;28;20464;-75
2021/10/10 09:57:45;;;;;;;;;;;11.70;99.90;;;;;;5098143;28;20559;-75
2021/10/10 10:00:18;;;;;;;;;;;11.70;99.90;;;;;;5098531;28;19953;-75
2021/10/10 10:02:46;;;;;;;;;;;11.70;99.90;;;;;;5103539;28;19970;-74
2021/10/10 10:05:23;;;;;;;;;;;11.50;99.90;;;;;;5091859;28;19936;-74
2021/10/10 10:07:51;;;;;;;;;;;11.40;99.90;;;;;;5100529;28;20010;-74
2021/10/10 10:10:18;;;;;;;;;;;11.30;99.90;;;;;;5097510;28;20025;-75
2021/10/10 10:12:45;;;;;;;;;;;11.80;99.90;;;;;;5098222;28;19940;-73
2021/10/10 10:15:12;;;;;;;;;;;12.00;99.90;;;;;;5095625;28;20656;-73
2021/10/10 10:17:38;;;;;;;;;;;12.10;99.90;;;;;;5104895;28;20304;-74
2021/10/10 10:20:06;;;;;;;;;;;12.40;99.90;;;;;;5094912;28;20641;-75
2021/10/10 10:22:34;;;;;;;;;;;12.70;99.90;;;;;;5089984;28;19955;-74
2021/10/10 10:25:02;;;;;;;;;;;12.80;99.90;;;;;;5099395;28;20400;-75
2021/10/10 10:27:29;;;;;;;;;;;13.00;99.90;;;;;;5101373;27;20022;-74
2021/10/10 10:29:56;;;;;;;;;;;13.30;99.90;;;;;;5105734;28;19960;-74
2021/10/10 10:32:24;;;;;;;;;;;13.50;99.90;;;;;;5099477;27;19939;-75
2021/10/10 10:34:58;;;;;;;;;;;13.50;99.90;;;;;;5103348;27;19937;-75
2021/10/10 10:37:39;;;;;;;;;;;13.40;99.90;;;;;;5104948;27;19938;-73
2021/10/10 10:40:27;;;;;;;;;;;13.20;99.90;;;;;;5104185;28;20069;-78
2021/10/10 10:42:55;;;;;;;;;;;13.30;99.90;;;;;;5105317;28;19941;-78
2021/10/10 10:45:22;;;;;;;;;;;13.20;99.90;;;;;;5103106;28;19938;-75
2021/10/10 10:47:51;;;;;;;;;;;13.20;99.90;;;;;;5103291;27;19933;-73
2021/10/10 10:50:20;;;;;;;;;;;13.20;99.90;;;;;;5096307;28;19940;-74
2021/10/10 10:52:56;;;;;;;;;;;13.30;99.90;;;;;;5108997;27;19970;-73
2021/10/10 10:55:25;;;;;;;;;;;13.30;99.90;;;;;;5100536;27;20418;-74
2021/10/10 10:57:52;;;;;;;;;;;13.30;99.90;;;;;;5106532;27;19953;-74
2021/10/10 11:00:30;;;;;;;;;;;13.50;99.90;;;;;;5109016;27;20039;-74
2021/10/10 11:03:18;;;;;;;;;;;13.60;99.90;;;;;;5112346;27;20049;-73
2021/10/10 11:05:46;;;;;;;;;;;13.70;99.90;;;;;;5105358;27;19931;-74
2021/10/10 11:08:35;;;;;;;;;;;13.90;99.90;;;;;;5111623;27;19956;-75
2021/10/10 11:11:07;;;;;;;;;;;13.80;99.90;;;;;;5111760;27;19946;-75
2021/10/10 11:13:37;;;;;;;;;;;14.00;99.90;;;;;;5109609;27;19936;-74
2021/10/10 11:16:05;;;;;;;;;;;13.90;99.90;;;;;;5106424;27;19961;-74
2021/10/10 11:18:32;;;;;;;;;;;13.90;99.90;;;;;;5115024;27;19956;-74
2021/10/10 11:21:01;;;;;;;;;;;14.20;99.90;;;;;;5104871;27;19952;-74
2021/10/10 11:23:28;;;;;;;;;;;14.10;99.90;;;;;;5103992;27;19952;-75
2021/10/10 11:25:56;;;;;;;;;;;14.30;99.90;;;;;;5096132;28;19940;-73
2021/10/10 11:28:36;;;;;;;;;;;14.30;99.90;;;;;;5108074;27;19935;-73
2021/10/10 11:31:09;;;;;;;;;;;14.50;99.90;;;;;;5109757;27;20046;-73
2021/10/10 11:33:37;;;;;;;;;;;14.00;99.90;;;;;;5094938;27;20040;-73
2021/10/10 11:36:04;;;;;;;;;;;14.30;99.90;;;;;;5093707;28;19936;-73
2021/10/10 11:38:46;;;;;;;;;;;14.60;99.90;;;;;;5120054;27;20043;-73
2021/10/10 11:41:12;;;;;;;;;;;14.70;99.90;;;;;;5112466;27;19960;-73
2021/10/10 11:43:40;;;;;;;;;;;14.80;99.90;;;;;;5109298;28;19939;-74
2021/10/10 11:46:07;;;;;;;;;;;15.00;99.90;;;;;;5103606;27;19942;-73
2021/10/10 11:48:35;;;;;;;;;;;15.00;99.90;;;;;;5109725;27;20402;-73
2021/10/10 11:51:02;;;;;;;;;;;15.00;99.90;;;;;;5110196;27;19973;-73
2021/10/10 11:53:42;;;;;;;;;;;15.20;99.90;;;;;;5114543;27;20032;-73
2021/10/10 11:56:09;;;;;;;;;;;15.10;99.90;;;;;;5094297;28;19946;-73
2021/10/10 11:58:35;;;;;;;;;;;15.10;99.90;;;;;;5110119;27;20032;-73
2021/10/10 12:01:11;;;;;;;;;;;15.00;99.90;;;;;;5105093;27;19967;-73
2021/10/10 12:03:42;;;;;;;;;;;15.20;99.90;;;;;;5107777;27;20457;-73
2021/10/10 12:06:16;;;;;;;;;;;15.40;99.90;;;;;;5098941;27;19940;-73
2021/10/10 12:08:42;;;;;;;;;;;15.70;99.90;;;;;;5107784;27;19952;-73
2021/10/10 12:11:09;;;;;;;;;;;15.90;99.90;;;;;;5108733;27;20309;-73
2021/10/10 12:13:36;;;;;;;;;;;15.90;99.90;;;;;;5104928;27;19940;-73
2021/10/10 12:16:04;;;;;;;;;;;15.60;99.90;;;;;;5106577;27;20401;-73
2021/10/10 12:18:32;;;;;;;;;;;15.90;99.90;;;;;;5093898;28;19940;-73
2021/10/10 12:21:18;;;;;;;;;;;16.10;99.90;;;;;;5100499;27;19949;-73
2021/10/10 12:23:45;;;;;;;;;;;16.00;99.90;;;;;;5103375;27;19933;-73
2021/10/10 12:26:13;;;;;;;;;;;16.00;99.90;;;;;;5099337;27;20019;-73
2021/10/10 12:28:40;;;;;;;;;;;16.00;99.90;;;;;;5092905;27;19939;-73
2021/10/10 12:31:07;;;;;;;;;;;16.10;99.90;;;;;;5099377;27;19940;-73
2021/10/10 12:33:38;;;;;;;;;;;16.10;99.90;;;;;;5106496;27;19941;-73
2021/10/10 12:36:08;;;;;;;;;;;16.20;99.90;;;;;;5108251;27;19987;-73
2021/10/10 12:38:36;;;;;;;;;;;16.40;99.90;;;;;;5105904;27;19943;-73
2021/10/10 12:41:22;;;;;;;;;;;16.60;99.90;;;;;;5108993;27;20440;-75
2021/10/10 12:43:50;;;;;;;;;;;16.70;99.90;;;;;;5112519;27;19933;-74
2021/10/10 12:46:18;;;;;;;;;;;16.60;99.90;;;;;;5094757;28;20356;-75
2021/10/10 12:49:00;;;;;;;;;;;16.20;99.90;;;;;;5097864;27;19988;-76
2021/10/10 12:51:26;;;;;;;;;;;16.30;99.90;;;;;;5092451;28;19936;-74
2021/10/10 12:54:08;;;;;;;;;;;16.30;99.90;;;;;;5111488;27;19931;-74
2021/10/10 12:56:35;;;;;;;;;;;16.30;99.90;;;;;;5106865;27;20422;-74
2021/10/10 12:59:01;;;;;;;;;;;16.40;99.90;;;;;;5092488;28;19972;-74
2021/10/10 13:01:29;;;;;;;;;;;16.60;99.90;;;;;;5106320;27;20080;-74
2021/10/10 13:03:57;;;;;;;;;;;16.80;99.90;;;;;;5090792;28;19932;-75
2021/10/10 13:06:24;;;;;;;;;;;17.00;99.90;;;;;;5102882;27;19939;-74
2021/10/10 13:08:51;;;;;;;;;;;16.90;99.90;;;;;;5098223;27;19939;-75
2021/10/10 13:11:19;;;;;;;;;;;16.70;99.90;;;;;;5101377;27;19949;-73
2021/10/10 13:13:46;;;;;;;;;;;16.60;99.90;;;;;;5101552;27;20393;-75
2021/10/10 13:16:12;;;;;;;;;;;16.50;99.90;;;;;;5096687;27;19948;-73
2021/10/10 13:18:39;;;;;;;;;;;16.40;99.90;;;;;;5105100;27;19949;-73
2021/10/10 13:21:07;;;;;;;;;;;16.40;99.90;;;;;;5103806;27;19936;-74
2021/10/10 13:23:34;;;;;;;;;;;16.30;99.90;;;;;;5093446;28;19941;-73
2021/10/10 13:26:01;;;;;;;;;;;16.50;99.90;;;;;;5106578;27;20301;-73
2021/10/10 13:28:28;;;;;;;;;;;16.30;99.90;;;;;;5106236;27;19936;-74
2021/10/10 13:30:59;;;;;;;;;;;16.80;99.90;;;;;;5112239;27;20607;-73
2021/10/10 13:33:25;;;;;;;;;;;17.10;99.90;;;;;;5102746;27;19945;-73
2021/10/10 13:35:52;;;;;;;;;;;17.20;99.90;;;;;;5105786;28;20290;-74
2021/10/10 13:38:21;;;;;;;;;;;16.90;99.90;;;;;;5099962;28;19939;-74
2021/10/10 13:40:48;;;;;;;;;;;16.80;99.90;;;;;;5099510;27;19935;-74
2021/10/10 13:43:15;;;;;;;;;;;16.50;99.90;;;;;;5111644;27;19967;-75
2021/10/10 13:45:42;;;;;;;;;;;16.20;99.90;;;;;;5101428;28;19943;-74
2021/10/10 13:48:08;;;;;;;;;;;15.90;99.90;;;;;;5096213;27;19984;-75
2021/10/10 13:50:35;;;;;;;;;;;16.00;99.90;;;;;;5105049;28;19939;-75
2021/10/10 13:53:02;;;;;;;;;;;16.00;99.90;;;;;;5112237;28;19955;-75
2021/10/10 13:55:30;;;;;;;;;;;16.20;99.90;;;;;;5103849;28;19940;-75
2021/10/10 13:57:57;;;;;;;;;;;16.60;99.90;;;;;;5106895;27;20037;-74
2021/10/10 14:00:23;;;;;;;;;;;17.00;99.90;;;;;;5104948;27;20382;-75
2021/10/10 14:02:50;;;;;;;;;;;16.90;99.90;;;;;;5101848;28;19953;-74
2021/10/10 14:05:17;;;;;;;;;;;16.90;99.90;;;;;;5105952;27;19950;-73
2021/10/10 14:07:43;;;;;;;;;;;16.70;99.90;;;;;;5095525;28;19949;-74
2021/10/10 14:10:10;;;;;;;;;;;16.40;99.90;;;;;;5100289;28;19947;-74
2021/10/10 14:12:38;;;;;;;;;;;16.30;99.90;;;;;;5101543;28;20311;-74
2021/10/10 14:15:05;;;;;;;;;;;16.00;99.90;;;;;;5107623;27;20047;-74
2021/10/10 14:17:32;;;;;;;;;;;16.00;99.90;;;;;;5101059;28;19941;-74
2021/10/10 14:20:00;;;;;;;;;;;16.00;99.90;;;;;;5099837;27;19950;-74
2021/10/10 14:22:26;;;;;;;;;;;16.00;99.90;;;;;;5105263;27;19957;-74
2021/10/10 14:24:53;;;;;;;;;;;16.10;99.90;;;;;;5108405;27;20409;-75
2021/10/10 14:27:20;;;;;;;;;;;16.10;99.90;;;;;;5115891;27;20132;-74
2021/10/10 14:29:48;;;;;;;;;;;16.00;99.90;;;;;;5109018;27;19950;-75
2021/10/10 14:32:15;;;;;;;;;;;15.80;99.90;;;;;;5102508;27;20309;-75